Time;durP1;ratioP1;P1;durP2;ratioP2;P2;SDS_P1;SDS_P2;PMS_P1;PMS_P2;Temp;Humidity;BMP_temperature;BMP_pressure;BME280_temperature;BME280_humidity;BME280_pressure;Samples;Min_cycle;Max_cycle;Signal;HPM_P1;HPM_P2
2023/09/13 00:00:17;;;;;;;32.20;19.10;;;;;;;20.73;45.50;100315.86;108242;1252;60610;-66
2023/09/13 00:02:44;;;;;;;27.30;16.80;;;;;;;20.80;45.27;100310.65;108270;1253;60510;-67
2023/09/13 00:05:11;;;;;;;43.40;20.80;;;;;;;20.98;45.02;100309.44;108271;1254;60306;-67
2023/09/13 00:07:38;;;;;;;36.70;19.20;;;;;;;20.85;45.03;100309.90;108264;1253;70121;-65
2023/09/13 00:10:05;;;;;;;37.20;18.50;;;;;;;20.99;44.95;100306.86;108177;1254;60273;-66
2023/09/13 00:12:32;;;;;;;38.80;19.90;;;;;;;20.94;44.84;100306.17;108244;1254;60680;-66
2023/09/13 00:14:59;;;;;;;38.80;18.50;;;;;;;20.56;45.40;100305.30;108216;1254;60456;-66
2023/09/13 00:17:26;;;;;;;35.90;20.40;;;;;;;20.32;46.08;100303.71;108269;1254;73637;-66
2023/09/13 00:19:56;;;;;;;33.10;18.70;;;;;;;20.34;46.16;100301.41;108193;1256;70463;-66
2023/09/13 00:22:23;;;;;;;39.10;19.40;;;;;;;20.53;45.81;100300.92;108270;1254;71312;-67
2023/09/13 00:24:49;;;;;;;38.40;19.70;;;;;;;20.69;45.49;100300.38;108297;1254;62373;-67
2023/09/13 00:27:16;;;;;;;30.10;17.90;;;;;;;20.28;46.30;100301.11;108337;1254;60752;-66
2023/09/13 00:29:42;;;;;;;33.10;18.90;;;;;;;20.32;46.23;100302.84;108280;1251;73617;-66
2023/09/13 00:32:09;;;;;;;37.70;19.60;;;;;;;20.48;46.10;100298.56;108270;1251;69029;-66
2023/09/13 00:34:35;;;;;;;36.60;19.70;;;;;;;20.61;45.80;100296.23;108240;1251;60293;-65
2023/09/13 00:37:02;;;;;;;32.30;19.30;;;;;;;20.62;45.69;100296.65;108239;1254;62175;-66
2023/09/13 00:39:29;;;;;;;32.70;19.00;;;;;;;20.60;45.79;100297.72;108249;1251;60616;-66
2023/09/13 00:41:57;;;;;;;36.30;19.30;;;;;;;20.46;46.07;100297.66;108224;1251;74179;-66
2023/09/13 00:44:24;;;;;;;36.30;20.50;;;;;;;20.37;46.26;100293.91;108230;1251;70167;-66
2023/09/13 00:46:50;;;;;;;35.80;20.20;;;;;;;20.39;46.12;100296.10;108304;1251;60337;-66
2023/09/13 00:49:17;;;;;;;36.00;19.10;;;;;;;20.36;46.34;100293.30;108254;1251;62026;-66
2023/09/13 00:51:44;;;;;;;34.50;17.90;;;;;;;20.16;46.60;100294.58;108255;1255;60318;-66
2023/09/13 00:54:10;;;;;;;35.40;18.20;;;;;;;20.04;46.99;100292.91;108216;1255;73928;-66
2023/09/13 00:56:37;;;;;;;35.70;19.10;;;;;;;20.35;46.38;100290.29;108285;1251;70257;-66
2023/09/13 00:59:04;;;;;;;32.70;18.30;;;;;;;20.46;45.99;100293.55;108277;1251;72767;-66
2023/09/13 01:01:31;;;;;;;40.70;20.40;;;;;;;20.45;46.05;100290.05;108203;1252;60444;-66
2023/09/13 01:03:58;;;;;;;33.30;19.60;;;;;;;20.44;46.02;100292.32;108291;1255;60527;-66
2023/09/13 01:06:25;;;;;;;36.80;19.80;;;;;;;20.34;46.27;100289.48;108335;1251;73635;-65
2023/09/13 01:08:51;;;;;;;41.60;20.20;;;;;;;20.22;46.66;100291.42;108242;1251;70069;-65
2023/09/13 01:11:18;;;;;;;41.40;19.60;;;;;;;20.20;46.75;100287.33;108132;1251;72466;-65
2023/09/13 01:13:45;;;;;;;34.60;20.20;;;;;;;20.07;46.83;100287.25;108323;1251;60338;-66
2023/09/13 01:16:24;;;;;;;41.30;20.90;;;;;;;19.93;47.23;100288.45;108324;1251;60401;-66
2023/09/13 01:18:53;;;;;;;38.70;19.20;;;;;;;19.86;47.28;100288.37;108324;1251;74556;-66
2023/09/13 01:21:55;;;;;;;39.00;20.70;;;;;;;19.80;47.41;100285.98;108239;1256;70287;-66
2023/09/13 01:24:48;;;;;;;51.80;21.30;;;;;;;19.74;47.52;100284.33;108275;1251;72338;-64
2023/09/13 01:27:24;;;;;;;36.90;19.10;;;;;;;19.58;47.93;100280.40;108215;1254;61975;-66
2023/09/13 01:29:51;;;;;;;38.10;20.10;;;;;;;19.39;48.34;100284.96;108149;1253;60304;-67
2023/09/13 01:32:19;;;;;;;42.10;20.00;;;;;;;19.39;48.47;100284.49;108030;1253;74040;-66
2023/09/13 01:34:45;;;;;;;36.70;19.90;;;;;;;19.49;48.29;100285.87;108193;1254;70828;-68
2023/09/13 01:37:12;;;;;;;42.60;20.00;;;;;;;19.45;48.10;100283.89;108212;1256;72607;-66
2023/09/13 01:39:39;;;;;;;41.40;20.90;;;;;;;19.34;48.52;100283.60;108191;1252;61833;-66
2023/09/13 01:42:07;;;;;;;32.40;19.00;;;;;;;19.40;48.55;100287.04;108212;1254;59626;-66
2023/09/13 01:44:34;;;;;;;42.10;21.40;;;;;;;19.41;48.67;100287.17;108163;1254;73848;-66
2023/09/13 01:47:02;;;;;;;43.40;21.60;;;;;;;19.36;48.80;100286.48;108159;1254;70429;-66
2023/09/13 01:49:29;;;;;;;41.60;21.80;;;;;;;19.33;48.76;100287.20;108206;1253;72553;-67
2023/09/13 01:51:56;;;;;;;38.70;20.90;;;;;;;19.35;48.79;100287.23;108305;1254;61812;-65
2023/09/13 01:54:22;;;;;;;41.40;20.00;;;;;;;19.38;48.87;100286.49;108246;1253;60342;-66
2023/09/13 01:56:49;;;;;;;36.80;20.40;;;;;;;19.41;48.87;100287.52;108217;1254;60204;-66
2023/09/13 01:59:16;;;;;;;36.60;20.60;;;;;;;19.38;49.03;100287.92;108120;1254;71286;-66
2023/09/13 02:01:42;;;;;;;43.10;21.60;;;;;;;19.41;49.00;100285.93;108207;1253;60440;-66
2023/09/13 02:04:09;;;;;;;37.20;21.40;;;;;;;19.26;49.16;100288.27;108165;1253;61646;-66
2023/09/13 02:06:36;;;;;;;39.10;18.60;;;;;;;19.21;49.34;100288.05;108139;1254;60627;-66
2023/09/13 02:09:03;;;;;;;41.80;22.00;;;;;;;19.07;49.61;100287.21;108165;1254;72642;-65
2023/09/13 02:11:30;;;;;;;34.80;20.10;;;;;;;18.97;49.95;100287.77;108173;1254;70223;-66
2023/09/13 02:13:56;;;;;;;36.50;19.50;;;;;;;18.78;50.34;100290.35;108103;1253;72468;-64
2023/09/13 02:16:24;;;;;;;40.30;20.70;;;;;;;18.90;50.25;100289.32;108128;1253;61640;-65
2023/09/13 02:18:54;;;;;;;38.30;20.70;;;;;;;18.82;50.31;100293.07;108180;1254;60288;-66
2023/09/13 02:21:20;;;;;;;40.00;21.00;;;;;;;18.86;50.31;100287.31;108055;1254;73882;-66
2023/09/13 02:23:47;;;;;;;30.30;17.80;;;;;;;18.93;50.23;100287.48;108199;1253;69989;-66
2023/09/13 02:26:22;;;;;;;36.10;20.50;;;;;;;18.90;50.24;100287.02;108225;1256;72671;-66
2023/09/13 02:28:51;;;;;;;40.30;21.20;;;;;;;18.98;50.02;100287.36;108258;1255;61696;-65
2023/09/13 02:31:22;;;;;;;36.20;19.20;;;;;;;18.85;50.29;100288.58;108281;1251;60318;-66
2023/09/13 02:33:49;;;;;;;38.80;20.30;;;;;;;19.09;49.65;100289.23;108246;1251;73535;-66
2023/09/13 02:36:16;;;;;;;39.60;20.90;;;;;;;19.16;49.53;100286.50;108222;1251;70328;-66
2023/09/13 02:38:42;;;;;;;36.30;20.60;;;;;;;19.12;49.49;100286.23;108233;1251;72493;-66
2023/09/13 02:41:09;;;;;;;39.40;21.20;;;;;;;19.15;49.37;100283.66;108231;1251;61834;-66
2023/09/13 02:43:37;;;;;;;43.50;20.90;;;;;;;19.18;49.23;100285.05;108219;1251;60444;-65
2023/09/13 02:46:03;;;;;;;42.90;21.50;;;;;;;19.14;49.34;100286.09;108244;1251;72556;-66
2023/09/13 02:48:30;;;;;;;37.20;19.80;;;;;;;19.00;49.59;100279.73;108255;1251;70041;-65
2023/09/13 02:50:57;;;;;;;36.20;20.50;;;;;;;18.49;50.60;100277.66;108255;1251;71019;-66
2023/09/13 02:53:23;;;;;;;37.50;20.40;;;;;;;18.69;50.27;100276.87;108249;1251;61053;-66
2023/09/13 02:55:50;;;;;;;41.50;21.90;;;;;;;18.75;50.16;100281.61;108206;1255;59973;-66
2023/09/13 02:58:17;;;;;;;31.70;17.10;;;;;;;18.52;50.64;100280.72;108251;1251;58805;-66
2023/09/13 03:00:44;;;;;;;35.20;20.40;;;;;;;18.49;50.89;100284.79;108267;1251;70154;-66
2023/09/13 03:03:10;;;;;;;33.30;19.00;;;;;;;18.47;50.89;100280.66;108214;1251;72432;-67
2023/09/13 03:05:37;;;;;;;41.70;21.60;;;;;;;18.34;51.18;100284.59;108215;1251;61842;-66
2023/09/13 03:08:05;;;;;;;33.80;20.60;;;;;;;18.30;51.21;100281.66;108327;1251;60165;-66
2023/09/13 03:10:37;;;;;;;35.60;18.10;;;;;;;18.32;51.34;100279.22;108257;1251;73906;-67
2023/09/13 03:13:03;;;;;;;47.40;22.50;;;;;;;18.26;51.40;100281.36;108223;1251;70065;-67
2023/09/13 03:15:33;;;;;;;33.20;19.30;;;;;;;18.22;51.46;100281.23;108279;1254;72786;-66
2023/09/13 03:18:00;;;;;;;39.70;20.20;;;;;;;18.19;51.55;100283.25;108237;1251;61961;-67
2023/09/13 03:20:27;;;;;;;36.80;19.40;;;;;;;18.18;51.45;100284.17;108360;1251;60412;-66
2023/09/13 03:22:55;;;;;;;34.60;19.10;;;;;;;18.08;51.80;100279.88;108284;1251;73702;-66
2023/09/13 03:25:22;;;;;;;38.70;20.80;;;;;;;17.93;52.27;100279.48;108237;1252;70175;-67
2023/09/13 03:27:49;;;;;;;36.90;21.30;;;;;;;17.81;52.63;100281.61;108237;1254;72601;-67
2023/09/13 03:30:16;;;;;;;37.20;20.20;;;;;;;17.85;53.61;100280.49;108157;1254;61886;-66
2023/09/13 03:32:43;;;;;;;41.00;22.00;;;;;;;18.29;52.90;100283.67;108174;1256;60571;-66
2023/09/13 03:35:10;;;;;;;38.90;21.60;;;;;;;18.28;52.94;100284.08;108235;1254;74195;-66
2023/09/13 03:37:37;;;;;;;38.70;22.70;;;;;;;18.05;53.91;100290.40;108247;1253;60338;-66
2023/09/13 03:40:05;;;;;;;35.60;21.90;;;;;;;18.13;54.32;100288.95;108305;1253;71832;-66
2023/09/13 03:42:32;;;;;;;42.40;22.60;;;;;;;18.14;54.66;100291.52;108258;1254;62533;-66
2023/09/13 03:44:59;;;;;;;34.20;20.10;;;;;;;18.24;54.43;100291.28;108141;1254;58614;-67
2023/09/13 03:47:25;;;;;;;41.10;21.60;;;;;;;18.46;54.85;100297.25;108207;1254;60270;-65
2023/09/13 03:49:52;;;;;;;43.90;22.10;;;;;;;18.60;54.45;100296.84;108314;1252;70091;-66
2023/09/13 03:52:18;;;;;;;40.70;23.20;;;;;;;18.79;54.09;100296.11;108178;1252;60312;-66
2023/09/13 03:54:45;;;;;;;34.20;20.40;;;;;;;19.05;53.44;100298.03;108255;1254;61780;-66
2023/09/13 03:57:12;;;;;;;42.80;22.10;;;;;;;19.23;53.15;100301.13;108198;1253;60766;-66
2023/09/13 03:59:38;;;;;;;37.40;20.10;;;;;;;19.22;53.14;100303.84;108185;1254;72361;-66
2023/09/13 04:02:05;;;;;;;46.60;21.60;;;;;;;19.34;52.63;100304.37;108188;1254;70515;-67
2023/09/13 04:04:31;;;;;;;45.20;21.90;;;;;;;19.66;52.21;100300.70;108270;1255;71395;-67
2023/09/13 04:06:58;;;;;;;39.10;20.00;;;;;;;19.97;51.62;100302.03;108310;1252;60376;-66
2023/09/13 04:09:25;;;;;;;40.50;21.60;;;;;;;20.33;50.96;100304.85;108349;1254;60006;-67
2023/09/13 04:11:52;;;;;;;38.60;20.90;;;;;;;20.58;50.37;100308.73;108375;1254;73720;-66
2023/09/13 04:14:18;;;;;;;35.70;21.20;;;;;;;20.81;49.65;100302.52;108323;1254;60417;-66
2023/09/13 04:16:45;;;;;;;37.00;21.40;;;;;;;21.00;49.30;100305.69;108286;1254;60307;-67
2023/09/13 04:19:12;;;;;;;33.40;19.60;;;;;;;21.33;48.70;100307.80;108328;1254;62011;-67
2023/09/13 04:21:39;;;;;;;33.80;20.20;;;;;;;21.80;47.76;100306.17;108174;1254;60489;-67
2023/09/13 04:24:06;;;;;;;37.60;20.30;;;;;;;22.11;47.01;100307.96;108286;1254;60277;-67
2023/09/13 04:26:32;;;;;;;41.50;20.30;;;;;;;22.32;46.47;100304.05;108355;1251;70447;-66
2023/09/13 04:28:59;;;;;;;30.90;19.30;;;;;;;22.50;46.21;100301.66;108301;1251;60197;-66
2023/09/13 04:31:28;;;;;;;35.00;18.80;;;;;;;22.85;45.34;100301.89;108408;1252;61995;-66
2023/09/13 04:33:55;;;;;;;36.80;19.30;;;;;;;23.10;44.40;100299.23;108366;1251;60335;-66
2023/09/13 04:36:28;;;;;;;31.50;18.70;;;;;;;23.25;44.00;100299.92;108258;1251;74034;-65
2023/09/13 04:38:56;;;;;;;31.80;17.40;;;;;;;23.46;43.80;100299.30;108277;1251;70511;-67
2023/09/13 04:41:22;;;;;;;28.10;16.60;;;;;;;23.92;43.14;100292.70;108239;1257;72548;-65
2023/09/13 04:43:49;;;;;;;36.40;17.90;;;;;;;24.38;41.57;100296.46;108246;1255;61892;-66
2023/09/13 04:46:18;;;;;;;29.70;16.50;;;;;;;24.72;40.69;100294.55;108313;1251;60274;-65
2023/09/13 04:48:45;;;;;;;34.30;16.10;;;;;;;24.80;40.46;100298.63;108509;1251;73880;-66
2023/09/13 04:51:11;;;;;;;25.00;14.70;;;;;;;24.85;40.13;100300.21;108246;1251;70082;-66
2023/09/13 04:53:38;;;;;;;34.90;15.60;;;;;;;24.97;39.33;100300.10;108237;1251;71578;-67
2023/09/13 04:56:05;;;;;;;28.40;15.60;;;;;;;25.09;39.19;100299.50;108465;1251;60374;-66
2023/09/13 04:58:36;;;;;;;26.90;15.50;;;;;;;25.31;38.63;100306.25;108397;1251;60460;-68
2023/09/13 05:01:05;;;;;;;26.60;15.20;;;;;;;25.18;38.32;100301.71;108369;1251;72387;-67
2023/09/13 05:03:32;;;;;;;24.60;15.20;;;;;;;25.15;38.56;100301.64;108328;1251;70369;-67
2023/09/13 05:05:59;;;;;;;27.50;15.10;;;;;;;25.49;38.10;100300.39;108347;1251;72370;-67
2023/09/13 05:08:26;;;;;;;30.20;15.80;;;;;;;26.18;36.97;100301.16;108370;1251;60440;-66
2023/09/13 05:10:54;;;;;;;24.80;14.40;;;;;;;26.44;36.36;100300.13;108370;1256;60359;-67
2023/09/13 05:13:20;;;;;;;33.10;15.90;;;;;;;26.68;35.93;100301.41;108383;1251;71921;-66
2023/09/13 05:15:47;;;;;;;24.30;13.20;;;;;;;26.67;35.59;100303.77;108311;1251;70316;-67
2023/09/13 05:18:14;;;;;;;31.30;15.50;;;;;;;26.75;35.46;100302.60;108305;1251;72359;-67
2023/09/13 05:20:40;;;;;;;26.50;15.30;;;;;;;26.94;34.95;100298.30;108266;1251;60286;-67
2023/09/13 05:23:07;;;;;;;28.40;14.50;;;;;;;27.11;34.78;100294.81;108283;1251;60378;-67
2023/09/13 05:25:34;;;;;;;24.90;15.50;;;;;;;27.35;34.17;100297.54;108303;1254;73787;-67
2023/09/13 05:28:02;;;;;;;29.40;14.60;;;;;;;27.81;33.59;100293.20;108318;1254;70289;-68
2023/09/13 05:30:33;;;;;;;28.00;15.50;;;;;;;28.15;33.28;100297.08;108187;1256;72331;-67
2023/09/13 05:33:00;;;;;;;22.50;14.60;;;;;;;28.28;32.59;100294.21;108303;1256;60311;-67
2023/09/13 05:35:32;;;;;;;27.30;14.20;;;;;;;28.36;32.53;100292.67;108222;1254;60303;-66
2023/09/13 05:37:58;;;;;;;37.90;16.10;;;;;;;28.67;32.45;100291.58;108285;1254;73841;-67
2023/09/13 05:40:29;;;;;;;27.00;14.90;;;;;;;29.20;31.72;100291.19;108324;1254;60208;-68
2023/09/13 05:42:56;;;;;;;25.50;13.50;;;;;;;29.49;30.82;100291.67;108327;1256;72807;-67
2023/09/13 05:45:25;;;;;;;22.10;14.00;;;;;;;29.64;30.53;100293.13;108177;1254;60303;-68
2023/09/13 05:47:52;;;;;;;25.60;14.10;;;;;;;29.86;30.36;100287.98;108277;1253;60351;-67
2023/09/13 05:50:19;;;;;;;26.90;13.20;;;;;;;29.95;30.10;100286.20;108252;1254;73557;-68
2023/09/13 05:52:45;;;;;;;23.00;13.50;;;;;;;30.20;29.79;100290.15;108322;1254;70344;-68
2023/09/13 05:55:12;;;;;;;23.10;13.50;;;;;;;30.42;29.23;100286.48;108382;1254;72649;-67
2023/09/13 05:57:39;;;;;;;34.10;13.40;;;;;;;30.71;28.86;100288.23;108388;1252;60981;-67
2023/09/13 06:00:07;;;;;;;30.00;12.60;;;;;;;31.03;28.49;100288.86;108307;1253;59667;-68
2023/09/13 06:02:37;;;;;;;20.00;12.30;;;;;;;31.19;28.10;100290.27;108198;1255;73928;-68
2023/09/13 06:05:04;;;;;;;23.00;10.50;;;;;;;31.36;27.88;100289.54;108277;1255;70723;-68
2023/09/13 06:07:34;;;;;;;22.20;12.30;;;;;;;31.47;27.78;100290.30;108222;1253;71878;-68
2023/09/13 06:10:01;;;;;;;24.10;11.90;;;;;;;31.81;27.20;100292.66;108276;1254;60367;-68
2023/09/13 06:12:27;;;;;;;25.00;11.10;;;;;;;31.85;26.96;100290.02;108358;1254;60266;-68
2023/09/13 06:14:55;;;;;;;20.60;10.90;;;;;;;31.93;26.91;100288.95;108257;1255;60434;-68
2023/09/13 06:17:22;;;;;;;19.60;11.10;;;;;;;32.20;26.37;100290.73;108235;1254;70256;-68
2023/09/13 06:19:50;;;;;;;20.60;10.70;;;;;;;32.46;26.37;100288.71;108193;1255;72827;-67
2023/09/13 06:22:17;;;;;;;20.00;10.40;;;;;;;32.92;26.13;100292.97;108408;1256;60415;-67
2023/09/13 06:24:44;;;;;;;21.90;10.20;;;;;;;33.42;25.40;100291.78;108418;1253;60052;-67
2023/09/13 06:27:11;;;;;;;14.50;9.10;;;;;;;33.82;24.98;100288.91;108324;1256;63804;-67
2023/09/13 06:29:37;;;;;;;17.50;10.10;;;;;;;34.26;24.47;100292.20;108327;1255;60318;-67
2023/09/13 06:32:04;;;;;;;15.40;10.10;;;;;;;34.51;24.13;100292.73;108229;1252;63852;-68
2023/09/13 06:34:33;;;;;;;14.30;9.20;;;;;;;34.80;23.71;100287.45;108327;1251;59560;-68
2023/09/13 06:37:00;;;;;;;18.30;9.90;;;;;;;34.94;23.37;100286.45;108267;1251;60459;-70
2023/09/13 06:42:52;;;;;;;14.60;8.30;;;;;;;33.88;24.43;100295.13;104813;1289;606279;-68
2023/09/13 06:45:27;;;;;;;17.80;8.30;;;;;;;35.34;22.61;100295.36;108012;1256;59173;-68
2023/09/13 06:47:56;;;;;;;12.70;7.20;;;;;;;35.50;22.00;100294.45;108048;1256;59000;-69
2023/09/13 06:50:24;;;;;;;17.20;8.30;;;;;;;35.42;21.91;100297.48;107979;1257;62182;-69
2023/09/13 06:53:11;;;;;;;20.40;8.50;;;;;;;35.29;21.94;100299.48;107890;1258;60224;-68
2023/09/13 06:55:57;;;;;;;12.00;8.30;;;;;;;35.26;21.87;100299.15;107942;1254;204701;-68
2023/09/13 06:58:28;;;;;;;12.90;7.80;;;;;;;35.25;22.03;100297.88;108193;1254;59077;-68
2023/09/13 07:00:56;;;;;;;23.40;8.80;;;;;;;35.43;22.05;100295.60;108183;1253;59096;-68
2023/09/13 07:03:42;;;;;;;18.70;8.00;;;;;;;35.79;21.76;100291.96;108168;1254;63500;-67
2023/09/13 07:06:16;;;;;;;15.20;7.50;;;;;;;36.20;21.22;100292.02;108105;1254;61652;-68
2023/09/13 07:08:43;;;;;;;13.10;7.30;;;;;;;36.54;20.80;100289.70;108179;1253;63837;-67
2023/09/13 07:11:10;;;;;;;12.60;6.90;;;;;;;36.79;20.40;100291.20;108153;1253;59600;-68
2023/09/13 07:13:37;;;;;;;16.00;7.70;;;;;;;36.86;20.24;100290.13;108205;1254;59456;-69
2023/09/13 07:16:03;;;;;;;20.10;8.00;;;;;;;36.95;20.02;100290.33;108110;1254;64251;-68
2023/09/13 07:18:30;;;;;;;14.20;7.30;;;;;;;36.79;20.06;100292.71;108155;1254;61727;-68
2023/09/13 07:20:57;;;;;;;15.30;7.40;;;;;;;36.42;20.34;100296.73;108241;1254;64042;-69
2023/09/13 07:23:23;;;;;;;11.30;6.90;;;;;;;36.28;20.46;100295.27;108241;1250;59463;-69
2023/09/13 07:25:50;;;;;;;12.20;7.30;;;;;;;36.32;20.48;100298.00;108188;1250;59106;-68
2023/09/13 07:28:17;;;;;;;18.20;7.00;;;;;;;36.51;20.29;100298.20;108249;1251;64226;-68
2023/09/13 07:30:44;;;;;;;16.00;7.20;;;;;;;36.56;20.30;100296.33;108235;1251;61764;-68
2023/09/13 07:33:10;;;;;;;12.40;6.90;;;;;;;36.85;20.10;100296.02;108255;1251;63805;-68
2023/09/13 07:35:37;;;;;;;23.10;7.70;;;;;;;36.94;20.18;100292.88;108301;1251;59841;-68
2023/09/13 07:38:04;;;;;;;19.10;7.30;;;;;;;37.24;19.86;100293.00;108269;1250;59602;-68
2023/09/13 07:40:30;;;;;;;14.70;6.60;;;;;;;37.40;19.36;100291.81;108290;1251;64994;-67
2023/09/13 07:42:59;;;;;;;17.20;7.20;;;;;;;37.44;19.37;100294.56;108340;1251;59506;-68
2023/09/13 07:45:25;;;;;;;19.30;7.00;;;;;;;37.49;19.22;100294.20;108212;1255;64065;-68
2023/09/13 07:47:52;;;;;;;14.00;6.50;;;;;;;37.46;19.19;100292.81;108253;1250;59052;-68
2023/09/13 07:50:37;;;;;;;14.70;6.70;;;;;;;37.52;19.34;100292.99;108265;1251;59643;-67
2023/09/13 07:53:04;;;;;;;13.10;6.60;;;;;;;37.90;19.04;100297.70;108233;1255;64420;-68
2023/09/13 07:55:33;;;;;;;20.90;7.50;;;;;;;38.19;18.55;100300.51;108305;1251;61627;-69
2023/09/13 07:58:01;;;;;;;14.40;7.00;;;;;;;38.06;18.36;100299.50;108256;1251;64766;-68
2023/09/13 08:00:27;;;;;;;13.60;6.70;;;;;;;38.22;18.46;100301.73;108237;1251;59525;-69
2023/09/13 08:02:54;;;;;;;13.90;7.00;;;;;;;38.15;18.57;100299.02;108275;1251;59933;-69
2023/09/13 08:05:21;;;;;;;14.10;6.60;;;;;;;38.19;18.30;100298.41;108321;1251;64082;-68
2023/09/13 08:07:47;;;;;;;12.10;6.00;;;;;;;38.21;18.23;100294.29;108290;1251;61368;-67
2023/09/13 08:10:14;;;;;;;12.50;6.50;;;;;;;38.06;18.04;100295.81;108224;1251;63805;-68
2023/09/13 08:12:43;;;;;;;12.90;6.40;;;;;;;38.07;18.29;100293.59;108289;1255;59479;-69
2023/09/13 08:15:10;;;;;;;13.00;6.90;;;;;;;38.07;18.52;100288.95;108226;1251;59641;-68
2023/09/13 08:17:37;;;;;;;13.40;6.00;;;;;;;38.47;18.44;100285.84;108249;1251;64506;-68
2023/09/13 08:20:10;;;;;;;8.90;5.70;;;;;;;38.71;17.77;100290.70;108292;1251;61711;-69
2023/09/13 08:22:36;;;;;;;11.80;5.40;;;;;;;38.56;17.40;100291.16;108207;1251;64641;-69
2023/09/13 08:25:10;;;;;;;15.70;5.80;;;;;;;38.49;17.60;100292.42;108237;1251;59506;-69
2023/09/13 08:27:36;;;;;;;11.20;5.50;;;;;;;38.10;17.87;100290.98;108286;1253;59605;-68
2023/09/13 08:30:04;;;;;;;21.90;6.30;;;;;;;38.17;18.21;100290.19;108283;1252;64379;-70
2023/09/13 08:32:31;;;;;;;10.70;5.30;;;;;;;38.45;17.84;100288.36;108288;1252;61933;-68
2023/09/13 08:34:58;;;;;;;8.80;5.20;;;;;;;38.67;17.37;100293.83;108205;1254;63998;-68
2023/09/13 08:37:25;;;;;;;11.10;6.20;;;;;;;38.68;17.25;100294.10;108280;1253;59525;-68
2023/09/13 08:39:54;;;;;;;10.60;5.10;;;;;;;38.23;17.37;100295.71;108273;1254;59611;-68
2023/09/13 08:42:21;;;;;;;11.90;5.60;;;;;;;37.63;18.06;100290.70;108289;1254;65598;-68
2023/09/13 08:44:49;;;;;;;10.20;4.90;;;;;;;37.70;18.23;100290.48;108331;1253;63050;-68
2023/09/13 08:47:16;;;;;;;10.20;5.50;;;;;;;37.87;18.21;100286.84;108147;1253;63822;-67
2023/09/13 08:49:43;;;;;;;10.10;5.40;;;;;;;38.34;17.81;100287.64;108147;1254;59010;-68
2023/09/13 08:52:09;;;;;;;16.90;5.40;;;;;;;38.34;17.67;100291.98;108040;1254;59556;-68
2023/09/13 08:54:36;;;;;;;13.50;5.70;;;;;;;37.93;18.09;100288.12;108105;1254;65022;-68
2023/09/13 08:57:25;;;;;;;10.80;5.80;;;;;;;37.64;18.28;100286.98;108184;1254;61470;-68
2023/09/13 08:59:52;;;;;;;17.10;6.60;;;;;;;37.36;18.61;100280.71;108202;1251;64116;-68
2023/09/13 09:02:18;;;;;;;10.50;5.80;;;;;;;37.52;18.49;100275.70;108271;1251;59802;-69
2023/09/13 09:04:45;;;;;;;12.40;5.50;;;;;;;37.82;18.13;100277.91;108294;1251;59618;-68
2023/09/13 09:07:12;;;;;;;9.60;5.90;;;;;;;37.94;17.87;100277.33;108208;1251;64437;-67
2023/09/13 09:09:39;;;;;;;19.90;5.90;;;;;;;38.13;17.70;100276.42;108343;1251;61538;-68
2023/09/13 09:12:07;;;;;;;15.40;6.40;;;;;;;38.35;17.66;100273.36;108168;1251;72903;-69
2023/09/13 09:14:34;;;;;;;12.10;5.40;;;;;;;38.51;17.57;100272.19;108266;1251;59833;-68
2023/09/13 09:17:01;;;;;;;10.00;5.30;;;;;;;38.50;17.47;100267.98;108247;1251;59602;-69
2023/09/13 09:19:29;;;;;;;15.20;5.40;;;;;;;38.34;17.66;100267.05;108301;1251;64427;-69
2023/09/13 09:22:00;;;;;;;15.80;6.30;;;;;;;38.46;17.58;100264.13;108329;1251;62756;-68
2023/09/13 09:24:26;;;;;;;13.60;6.00;;;;;;;38.62;17.47;100264.10;108281;1251;64094;-67
2023/09/13 09:26:54;;;;;;;12.50;6.10;;;;;;;38.74;17.46;100262.29;108294;1251;59525;-68
2023/09/13 09:29:21;;;;;;;13.30;6.00;;;;;;;38.89;17.27;100258.63;108324;1251;59512;-68
2023/09/13 09:31:51;;;;;;;15.70;6.50;;;;;;;39.22;17.29;100258.15;108225;1251;63253;-67
2023/09/13 09:34:18;;;;;;;13.80;5.60;;;;;;;39.34;16.97;100258.31;108387;1251;62846;-68
2023/09/13 09:36:46;;;;;;;12.40;6.20;;;;;;;39.44;16.70;100253.98;108228;1253;63800;-68
2023/09/13 09:39:15;;;;;;;12.00;5.40;;;;;;;39.47;16.77;100252.63;108265;1251;59871;-68
2023/09/13 09:41:42;;;;;;;10.60;5.70;;;;;;;39.71;16.66;100251.73;108311;1251;59525;-68
2023/09/13 09:44:08;;;;;;;10.30;4.80;;;;;;;39.92;16.51;100251.42;108279;1251;64580;-69
2023/09/13 09:46:36;;;;;;;13.70;5.00;;;;;;;39.81;15.95;100244.66;108297;1250;61800;-69
2023/09/13 09:49:04;;;;;;;17.00;5.80;;;;;;;39.79;16.24;100242.67;108168;1251;64061;-67
2023/09/13 09:51:32;;;;;;;19.10;5.20;;;;;;;39.75;16.33;100238.52;108243;1251;59612;-67
2023/09/13 09:53:58;;;;;;;11.00;4.90;;;;;;;39.55;15.79;100239.06;108289;1251;59573;-67
2023/09/13 09:56:28;;;;;;;8.90;4.50;;;;;;;39.23;16.45;100234.14;108095;1251;64391;-68
2023/09/13 09:58:56;;;;;;;10.90;4.50;;;;;;;39.07;16.31;100234.90;108114;1251;62805;-68
2023/09/13 10:01:23;;;;;;;12.40;4.60;;;;;;;38.93;16.30;100235.25;108271;1251;62705;-68
2023/09/13 10:03:54;;;;;;;8.70;4.50;;;;;;;38.75;16.42;100235.49;108316;1251;59503;-68
2023/09/13 10:06:21;;;;;;;11.60;5.20;;;;;;;38.66;16.67;100234.79;108325;1251;59435;-68
2023/09/13 10:08:48;;;;;;;9.70;4.00;;;;;;;38.38;16.67;100242.52;108223;1250;63015;-68
2023/09/13 10:11:21;;;;;;;10.40;4.00;;;;;;;38.04;16.61;100241.52;108315;1251;61972;-68
2023/09/13 10:13:48;;;;;;;11.50;4.50;;;;;;;37.87;16.33;100240.54;108234;1251;65677;-68
2023/09/13 10:16:16;;;;;;;7.80;4.20;;;;;;;37.75;16.69;100237.48;108298;1251;59636;-69
2023/09/13 10:18:44;;;;;;;9.90;4.00;;;;;;;38.04;16.69;100243.30;108313;1251;60044;-68
2023/09/13 10:21:11;;;;;;;11.40;4.10;;;;;;;38.07;16.59;100242.76;108283;1250;64214;-69
2023/09/13 10:23:49;;;;;;;12.60;4.50;;;;;;;37.82;16.66;100241.92;108331;1251;61496;-68
2023/09/13 10:26:17;;;;;;;10.40;4.10;;;;;;;37.86;16.79;100234.81;108297;1251;64004;-67
2023/09/13 10:28:45;;;;;;;12.10;4.20;;;;;;;37.88;16.51;100230.92;108123;1257;59477;-68
2023/09/13 10:31:16;;;;;;;11.50;4.20;;;;;;;37.91;16.55;100231.81;108468;1251;59097;-67
2023/09/13 10:33:45;;;;;;;11.70;4.20;;;;;;;37.86;16.19;100235.15;108288;1251;64241;-68
2023/09/13 10:36:34;;;;;;;6.30;3.70;;;;;;;37.98;16.25;100228.11;108201;1251;61590;-69
2023/09/13 10:39:07;;;;;;;9.50;3.80;;;;;;;38.29;15.82;100228.70;108246;1251;64077;-69
2023/09/13 10:41:46;;;;;;;18.90;4.20;;;;;;;38.34;15.77;100224.14;108262;1254;59490;-68
2023/09/13 10:44:12;;;;;;;6.80;3.50;;;;;;;38.27;15.93;100229.63;108201;1251;59452;-68
2023/09/13 10:46:39;;;;;;;9.20;3.90;;;;;;;38.45;15.84;100225.74;108125;1257;64389;-68
2023/09/13 10:49:06;;;;;;;9.90;4.00;;;;;;;38.75;15.85;100216.23;108240;1251;71396;-68
2023/09/13 10:51:33;;;;;;;7.50;3.20;;;;;;;38.80;15.42;100218.43;108222;1251;65219;-68
2023/09/13 10:54:00;;;;;;;14.70;3.20;;;;;;;38.64;15.36;100219.49;108136;1251;60341;-69
2023/09/13 10:56:28;;;;;;;10.50;3.70;;;;;;;38.45;15.26;100219.90;108260;1251;60447;-67
2023/09/13 10:58:57;;;;;;;6.80;3.50;;;;;;;38.35;15.39;100215.44;108217;1251;65153;-68
2023/09/13 11:01:25;;;;;;;8.70;3.40;;;;;;;38.26;15.57;100218.12;108290;1251;61762;-68
2023/09/13 11:03:52;;;;;;;7.90;3.60;;;;;;;37.87;15.56;100219.57;108301;1251;64109;-68
2023/09/13 11:06:20;;;;;;;7.80;3.30;;;;;;;37.91;15.73;100210.71;108308;1251;59947;-67
2023/09/13 11:08:47;;;;;;;9.30;3.50;;;;;;;38.04;15.69;100210.50;108361;1251;60275;-68
2023/09/13 11:11:16;;;;;;;11.50;3.90;;;;;;;38.09;15.69;100207.33;108176;1251;64993;-68